Time;durP1;ratioP1;P1;durP2;ratioP2;P2;SDS_P1;SDS_P2;PMS_P1;PMS_P2;Temp;Humidity;BMP_temperature;BMP_pressure;BME280_temperature;BME280_humidity;BME280_pressure;Samples;Min_cycle;Max_cycle;Signal;HPM_P1;HPM_P2
2021/11/07 00:00:34;;;;;;;14.15;4.70;;;;;;;9.99;70.02;101654.16;5046571;28;20048;-63
2021/11/07 00:06:15;;;;;;;13.00;4.80;;;;;;;10.17;69.47;101640.34;5052885;28;20040;-62
2021/11/07 00:08:50;;;;;;;11.75;4.75;;;;;;;10.17;69.34;101632.41;5053835;28;20053;-62
2021/11/07 00:11:31;;;;;;;14.70;5.47;;;;;;;10.16;69.46;101636.00;5053474;28;20466;-62
2021/11/07 00:13:58;;;;;;;14.32;4.63;;;;;;;10.09;69.98;101637.47;5052992;28;20101;-62
2021/11/07 00:16:28;;;;;;;14.60;4.47;;;;;;;10.04;70.49;101627.28;5054147;28;20102;-62
2021/11/07 00:21:50;;;;;;;10.35;4.50;;;;;;;10.08;70.29;101619.91;5053960;28;20442;-63
2021/11/07 00:27:09;;;;;;;10.90;4.30;;;;;;;10.11;70.66;101627.59;5053785;28;20136;-62
2021/11/07 00:29:41;;;;;;;;;;;;;;;9.98;71.37;101630.44;5053133;28;20037;-62
2021/11/07 00:32:22;;;;;;;14.75;4.10;;;;;;;10.03;71.49;101630.06;5052235;28;19921;-62
2021/11/07 00:37:38;;;;;;;11.23;4.55;;;;;;;9.83;73.24;101614.00;5058982;28;20294;-63
2021/11/07 00:40:27;;;;;;;16.73;5.25;;;;;;;9.70;74.23;101606.25;5094525;28;20052;-63
2021/11/07 00:45:33;;;;;;;15.45;5.10;;;;;;;9.50;75.61;101602.59;5094178;28;20051;-63
2021/11/07 00:48:23;;;;;;;26.38;6.07;;;;;;;9.59;75.70;101595.69;5092371;28;20558;-63
2021/11/07 00:51:08;;;;;;;15.05;5.72;;;;;;;9.59;75.76;101599.16;5092665;28;20040;-63
2021/11/07 00:56:35;;;;;;;18.65;6.15;;;;;;;9.36;77.01;101600.22;5048919;28;20392;-61
2021/11/07 00:59:12;;;;;;;13.55;5.38;;;;;;;9.40;76.94;101601.66;5049739;28;20128;-63
2021/11/07 01:01:46;;;;;;;17.17;6.32;;;;;;;9.36;77.36;101585.16;5049631;28;20494;-63
2021/11/07 01:04:14;;;;;;;15.32;6.22;;;;;;;9.41;77.61;101592.75;5030281;28;20037;-62
2021/11/07 01:06:42;;;;;;;16.15;6.65;;;;;;;9.22;78.71;101591.59;5049093;28;20494;-61
2021/11/07 01:09:11;;;;;;;18.15;6.32;;;;;;;9.18;79.01;101584.84;5049605;28;20524;-61
2021/11/07 01:11:38;;;;;;;17.67;6.63;;;;;;;9.22;79.44;101585.44;5031912;28;20111;-62
2021/11/07 01:14:07;;;;;;;16.65;6.57;;;;;;;9.18;79.44;101582.19;5047968;28;20055;-62
2021/11/07 01:16:34;;;;;;;16.90;6.75;;;;;;;9.09;80.37;101575.00;5047143;28;20063;-61
2021/11/07 01:19:02;;;;;;;17.48;6.32;;;;;;;9.26;80.53;101568.38;5038684;28;20068;-62
2021/11/07 01:21:34;;;;;;;20.10;8.10;;;;;;;9.12;81.20;101558.88;5027537;28;20045;-62
2021/11/07 01:24:05;;;;;;;19.33;7.13;;;;;;;8.96;82.14;101563.75;5035417;28;20139;-62
2021/11/07 01:26:37;;;;;;;16.48;6.80;;;;;;;8.98;82.14;101572.38;5048740;28;20037;-62
2021/11/07 01:29:12;;;;;;;18.25;6.90;;;;;;;8.83;83.09;101577.13;5048251;28;20045;-62
2021/11/07 01:31:39;;;;;;;15.20;7.20;;;;;;;8.89;83.42;101570.50;5036235;28;20045;-62
2021/11/07 01:34:12;;;;;;;14.25;6.82;;;;;;;8.86;83.68;101561.00;5046998;28;20056;-61
2021/11/07 01:36:48;;;;;;;21.45;7.07;;;;;;;8.91;84.11;101566.75;5047347;28;20502;-62
2021/11/07 01:39:23;;;;;;;20.77;6.40;;;;;;;8.95;83.93;101567.34;5047218;28;20120;-62
2021/11/07 01:42:02;;;;;;;15.05;7.18;;;;;;;8.78;85.27;101553.66;5048363;28;20045;-62
2021/11/07 01:44:51;;;;;;;16.30;7.40;;;;;;;8.81;85.70;101561.34;5048598;28;20057;-62
2021/11/07 01:47:20;;;;;;;16.38;6.75;;;;;;;8.79;85.92;101559.81;5048715;28;20050;-62
2021/11/07 01:49:47;;;;;;;17.40;7.22;;;;;;;8.79;86.55;101554.53;5048494;28;20090;-62
2021/11/07 01:52:15;;;;;;;15.35;7.10;;;;;;;8.77;86.29;101554.63;5048452;28;20038;-62
2021/11/07 01:54:59;;;;;;;16.27;7.03;;;;;;;8.69;86.39;101557.03;5047548;28;20056;-61
2021/11/07 01:57:30;;;;;;;13.43;7.05;;;;;;;8.80;87.12;101548.25;5048482;28;20095;-62
2021/11/07 02:00:00;;;;;;;18.77;8.43;;;;;;;8.67;87.07;101542.25;5048681;28;20453;-62
2021/11/07 02:02:35;;;;;;;15.32;7.10;;;;;;;8.70;87.26;101536.75;5048462;28;20353;-62
2021/11/07 02:05:05;;;;;;;17.63;7.25;;;;;;;8.69;87.33;101533.22;5046592;28;20043;-62
2021/11/07 02:07:33;;;;;;;15.80;7.13;;;;;;;8.74;87.05;101524.94;5036799;28;20545;-62
2021/11/07 02:10:04;;;;;;;19.05;7.28;;;;;;;8.64;86.97;101525.69;5035197;28;20049;-62
2021/11/07 02:12:31;;;;;;;13.68;6.85;;;;;;;8.60;87.30;101513.66;5035114;28;20046;-61
2021/11/07 02:14:58;;;;;;;15.90;7.25;;;;;;;8.63;87.20;101507.28;5033628;28;20406;-62
2021/11/07 02:17:25;;;;;;;14.65;6.72;;;;;;;8.59;87.25;101501.41;5024767;28;20490;-61
2021/11/07 02:19:52;;;;;;;17.10;7.50;;;;;;;8.53;88.35;101508.97;5019695;28;20046;-62
2021/11/07 02:22:19;;;;;;;16.33;7.47;;;;;;;8.68;87.16;101501.59;5016221;28;20057;-61
2021/11/07 02:24:46;;;;;;;15.35;7.28;;;;;;;8.67;87.38;101507.88;5020251;28;20044;-62
2021/11/07 02:27:12;;;;;;;17.27;6.95;;;;;;;8.49;87.76;101496.97;5031213;28;20037;-61
2021/11/07 02:29:39;;;;;;;13.30;6.45;;;;;;;8.55;87.83;101489.38;5021244;28;20041;-62
2021/11/07 02:32:06;;;;;;;12.77;6.63;;;;;;;8.52;88.15;101488.78;5034008;28;20391;-61
2021/11/07 02:34:34;;;;;;;16.10;7.78;;;;;;;8.54;87.86;101477.13;5033664;28;20418;-61
2021/11/07 02:37:01;;;;;;;12.90;7.22;;;;;;;8.57;87.87;101482.16;5019339;28;20053;-62
2021/11/07 02:39:28;;;;;;;18.02;8.40;;;;;;;8.53;87.76;101471.94;5032198;28;20042;-61
2021/11/07 02:41:57;;;;;;;15.77;7.75;;;;;;;8.52;88.33;101470.28;5034296;28;20038;-61
2021/11/07 02:44:27;;;;;;;14.43;7.15;;;;;;;8.58;87.71;101475.06;5034202;28;20111;-61
2021/11/07 02:46:55;;;;;;;17.38;7.45;;;;;;;8.60;87.24;101473.13;5033775;28;20501;-61
2021/11/07 02:49:23;;;;;;;11.43;6.15;;;;;;;8.54;87.79;101471.81;5034061;28;20517;-61
2021/11/07 02:51:50;;;;;;;14.68;7.13;;;;;;;8.64;87.73;101485.13;5033064;28;20049;-61
2021/11/07 02:54:17;;;;;;;13.35;7.28;;;;;;;8.63;87.69;101459.66;5019943;28;20066;-61
2021/11/07 02:56:44;;;;;;;14.77;7.63;;;;;;;8.57;87.73;101453.06;5014342;28;20477;-61
2021/11/07 02:59:19;;;;;;;13.15;7.90;;;;;;;8.56;87.77;101459.31;5014082;28;20054;-61
2021/11/07 03:01:47;;;;;;;13.73;7.35;;;;;;;8.57;88.09;101455.72;5012828;28;20460;-62
2021/11/07 03:04:14;;;;;;;15.90;8.20;;;;;;;8.46;88.52;101453.09;5018663;28;20037;-61
2021/11/07 03:06:43;;;;;;;15.20;7.72;;;;;;;8.58;88.16;101451.25;5031245;28;20049;-61
2021/11/07 03:09:15;;;;;;;16.95;8.93;;;;;;;8.52;88.32;101447.31;5033009;28;20064;-62
2021/11/07 03:11:44;;;;;;;14.10;8.50;;;;;;;8.55;88.35;101444.44;5033705;28;20041;-62
2021/11/07 03:14:14;;;;;;;13.45;7.93;;;;;;;8.58;88.16;101444.16;5033704;28;20115;-62
2021/11/07 03:16:43;;;;;;;15.63;8.30;;;;;;;8.56;87.84;101432.88;5033748;28;20052;-61
2021/11/07 03:19:11;;;;;;;15.55;8.82;;;;;;;8.47;88.60;101443.34;5031572;28;20453;-61
2021/11/07 03:21:38;;;;;;;16.70;8.30;;;;;;;8.62;87.76;101448.25;5033671;28;20053;-62
2021/11/07 03:24:06;;;;;;;14.00;8.68;;;;;;;8.51;88.24;101434.22;5032648;28;20091;-62
2021/11/07 03:26:36;;;;;;;15.57;8.77;;;;;;;8.70;87.46;101431.75;5032399;28;20428;-61
2021/11/07 03:29:05;;;;;;;18.73;9.23;;;;;;;8.75;87.33;101418.16;5033871;28;20060;-62
2021/11/07 03:31:40;;;;;;;15.80;10.23;;;;;;;8.62;88.29;101424.47;5032269;28;20124;-61
2021/11/07 03:34:17;;;;;;;20.10;10.63;;;;;;;8.59;87.92;101423.88;5030455;28;20038;-61
2021/11/07 03:36:48;;;;;;;16.90;9.20;;;;;;;8.66;87.84;101425.03;5033051;28;20045;-62
2021/11/07 03:39:16;;;;;;;15.90;11.23;;;;;;;8.64;87.36;101414.59;5033812;28;20092;-62
2021/11/07 03:41:44;;;;;;;18.70;10.60;;;;;;;8.71;87.46;101416.72;5033406;28;20049;-61
2021/11/07 03:44:12;;;;;;;19.13;10.43;;;;;;;8.74;86.99;101409.38;5033390;28;20041;-61
2021/11/07 03:46:42;;;;;;;19.00;10.43;;;;;;;8.78;87.07;101399.38;5031982;28;20041;-62
2021/11/07 03:49:10;;;;;;;16.13;9.60;;;;;;;8.78;87.21;101407.31;5033241;28;20049;-62
2021/11/07 03:51:37;;;;;;;15.02;9.93;;;;;;;8.87;86.80;101384.56;5032864;28;20069;-61
2021/11/07 03:54:05;;;;;;;12.88;8.43;;;;;;;8.86;86.47;101370.50;5033042;28;20042;-62
2021/11/07 03:56:33;;;;;;;14.95;8.65;;;;;;;8.78;86.66;101367.63;5033028;28;20128;-61
2021/11/07 03:58:59;;;;;;;16.60;9.45;;;;;;;8.86;86.74;101389.03;5033309;28;20052;-61
2021/11/07 04:01:26;;;;;;;14.68;8.88;;;;;;;8.72;86.99;101382.22;5032894;28;20045;-61
2021/11/07 04:03:53;;;;;;;15.63;8.70;;;;;;;8.79;86.98;101362.22;5031324;28;20045;-61
2021/11/07 04:06:20;;;;;;;15.10;8.13;;;;;;;8.93;86.18;101360.22;5031320;28;20046;-61
2021/11/07 04:08:47;;;;;;;11.68;7.18;;;;;;;8.91;86.34;101359.50;5032013;28;20054;-62
2021/11/07 04:11:15;;;;;;;12.30;7.22;;;;;;;8.89;86.46;101358.81;5032972;28;20084;-62
2021/11/07 04:13:42;;;;;;;15.85;8.10;;;;;;;8.95;86.31;101361.78;5027851;28;20098;-61
2021/11/07 04:16:10;;;;;;;12.48;7.15;;;;;;;8.96;86.38;101370.56;5012907;28;20395;-62
2021/11/07 04:18:39;;;;;;;16.83;7.40;;;;;;;8.92;86.38;101358.56;5024910;28;20502;-61
2021/11/07 04:21:06;;;;;;;13.30;7.25;;;;;;;8.97;86.31;101351.09;5031127;28;20046;-61
2021/11/07 04:23:33;;;;;;;13.07;7.00;;;;;;;9.06;85.89;101352.09;5032125;28;20033;-61
2021/11/07 04:25:59;;;;;;;12.82;7.40;;;;;;;9.00;86.33;101349.03;5032111;28;20038;-61
2021/11/07 04:28:26;;;;;;;15.02;7.10;;;;;;;9.02;86.44;101348.88;5032404;28;20041;-61
2021/11/07 04:30:54;;;;;;;14.90;7.60;;;;;;;9.12;86.01;101341.84;5032228;28;20041;-61
2021/11/07 04:33:22;;;;;;;15.68;7.95;;;;;;;9.02;86.44;101340.94;5029988;28;20041;-62
2021/11/07 04:35:49;;;;;;;12.80;7.95;;;;;;;9.12;85.80;101348.94;5021124;28;20049;-62
2021/11/07 04:38:17;;;;;;;14.82;7.88;;;;;;;9.10;85.90;101341.13;5027160;28;20049;-61
2021/11/07 04:40:45;;;;;;;12.70;7.80;;;;;;;9.15;86.05;101335.44;5032099;28;20037;-61
2021/11/07 04:43:11;;;;;;;13.85;8.20;;;;;;;9.25;85.51;101332.84;5031011;28;20049;-61
2021/11/07 04:45:38;;;;;;;14.95;7.70;;;;;;;9.08;86.29;101332.50;5030211;28;20046;-62
2021/11/07 04:48:05;;;;;;;14.90;8.30;;;;;;;9.12;86.07;101333.06;5032022;28;20041;-61
2021/11/07 04:50:36;;;;;;;14.82;8.18;;;;;;;9.25;85.79;101323.09;5032300;28;20144;-62
2021/11/07 04:53:07;;;;;;;18.88;8.90;;;;;;;9.21;85.65;101314.59;5020798;28;20430;-61
2021/11/07 04:55:36;;;;;;;13.00;7.88;;;;;;;9.16;86.16;101302.72;5059489;28;20049;-61
2021/11/07 04:58:04;;;;;;;16.77;9.40;;;;;;;9.19;86.16;101310.41;5031736;28;20045;-61
2021/11/07 05:00:32;;;;;;;14.77;9.25;;;;;;;9.29;86.07;101313.09;5031154;28;20097;-61
2021/11/07 05:03:01;;;;;;;15.80;9.02;;;;;;;9.28;85.87;101304.31;5012052;28;20080;-62
2021/11/07 05:05:29;;;;;;;15.90;9.43;;;;;;;9.21;85.90;101317.22;5030376;28;20053;-62
2021/11/07 05:07:56;;;;;;;13.27;8.52;;;;;;;9.21;86.34;101311.09;5031955;28;20041;-61
2021/11/07 05:10:24;;;;;;;14.07;9.07;;;;;;;9.25;85.96;101298.44;5030586;28;20053;-61
2021/11/07 05:12:52;;;;;;;15.90;9.02;;;;;;;9.40;85.64;101289.16;5031741;28;20103;-61
2021/11/07 05:15:19;;;;;;;15.57;9.98;;;;;;;9.26;86.19;101290.38;5010968;28;20049;-61
2021/11/07 05:17:46;;;;;;;14.52;8.98;;;;;;;9.34;85.66;101290.53;5027138;28;20053;-61
2021/11/07 05:20:14;;;;;;;15.75;9.15;;;;;;;9.47;85.31;101289.47;5031871;28;20045;-61
2021/11/07 05:22:41;;;;;;;15.07;10.23;;;;;;;9.25;86.20;101282.56;5031735;28;20041;-62
2021/11/07 05:25:10;;;;;;;16.50;10.32;;;;;;;9.25;86.50;101280.75;5031288;28;20367;-61
2021/11/07 05:27:37;;;;;;;16.23;10.65;;;;;;;9.35;86.15;101292.22;5019119;28;20046;-61
2021/11/07 05:30:08;;;;;;;17.40;10.13;;;;;;;9.28;86.24;101272.53;5029946;28;20064;-63
2021/11/07 05:32:34;;;;;;;17.40;10.05;;;;;;;9.35;86.28;101279.00;5031254;28;20038;-61
2021/11/07 05:35:02;;;;;;;19.30;9.50;;;;;;;9.43;85.79;101288.06;5031791;28;20060;-61
2021/11/07 05:37:30;;;;;;;16.38;10.55;;;;;;;9.39;85.84;101271.63;5031448;28;20564;-61
2021/11/07 05:39:56;;;;;;;15.65;10.70;;;;;;;9.43;85.85;101269.53;5030256;28;20417;-61
2021/11/07 05:42:23;;;;;;;18.75;10.95;;;;;;;9.32;86.41;101295.13;5033812;28;20502;-61
2021/11/07 05:44:50;;;;;;;16.70;10.55;;;;;;;9.42;86.21;101295.16;5034036;28;20402;-61
2021/11/07 05:47:17;;;;;;;15.25;10.13;;;;;;;9.47;85.83;101271.78;5035146;28;20048;-61
2021/11/07 05:49:44;;;;;;;16.65;11.20;;;;;;;9.37;86.28;101261.16;5034122;28;20053;-61
2021/11/07 05:52:11;;;;;;;14.80;10.07;;;;;;;9.44;86.37;101266.75;5034617;28;20049;-61
2021/11/07 05:54:38;;;;;;;19.88;10.40;;;;;;;9.44;86.27;101252.66;5033646;28;20080;-61
2021/11/07 05:57:05;;;;;;;15.82;10.38;;;;;;;9.43;86.65;101251.00;5017356;28;20398;-61
2021/11/07 05:59:32;;;;;;;17.58;10.55;;;;;;;9.43;86.59;101262.44;5035073;28;20042;-61
2021/11/07 06:01:58;;;;;;;15.13;9.93;;;;;;;9.50;85.67;101262.75;5035171;28;20503;-61
2021/11/07 06:04:26;;;;;;;18.15;10.20;;;;;;;9.49;86.27;101255.75;5033334;28;20456;-62
2021/11/07 06:06:52;;;;;;;16.10;9.90;;;;;;;9.54;86.03;101257.03;5034801;28;20034;-61
2021/11/07 06:09:19;;;;;;;17.95;10.77;;;;;;;9.53;85.90;101268.59;5035498;28;20053;-62
2021/11/07 06:11:46;;;;;;;14.77;9.65;;;;;;;9.62;85.80;101269.59;5034861;28;20076;-62
2021/11/07 06:14:13;;;;;;;14.43;9.60;;;;;;;9.55;85.98;101271.09;5034978;28;20105;-61
2021/11/07 06:16:41;;;;;;;18.77;10.27;;;;;;;9.48;86.21;101268.16;5030840;28;20088;-61
2021/11/07 06:19:07;;;;;;;17.65;9.60;;;;;;;9.51;86.34;101275.00;5024477;28;20067;-61
2021/11/07 06:21:36;;;;;;;15.05;9.15;;;;;;;9.58;85.89;101278.78;5025551;28;20450;-61
2021/11/07 06:24:08;;;;;;;17.80;9.45;;;;;;;9.60;86.06;101269.75;5030667;28;20041;-61
2021/11/07 06:26:35;;;;;;;18.10;10.30;;;;;;;9.55;87.07;101279.03;5027379;28;20052;-61
2021/11/07 06:29:02;;;;;;;22.58;10.00;;;;;;;9.53;88.03;101281.00;5034604;28;20088;-63
2021/11/07 06:31:29;;;;;;;19.70;10.35;;;;;;;9.58;87.74;101290.22;5031457;28;20517;-62
2021/11/07 06:33:56;;;;;;;19.45;10.13;;;;;;;9.64;88.13;101285.34;5013288;28;20042;-62
2021/11/07 06:36:23;;;;;;;17.33;9.63;;;;;;;9.58;88.26;101292.03;5025864;28;20046;-62
2021/11/07 06:38:50;;;;;;;19.70;10.63;;;;;;;9.51;88.68;101302.31;5027755;28;20437;-62
2021/11/07 06:41:17;;;;;;;16.00;9.20;;;;;;;9.56;88.84;101293.97;5033883;28;20502;-62
2021/11/07 06:43:44;;;;;;;17.73;10.25;;;;;;;9.44;89.37;101289.75;5033097;28;20046;-62
2021/11/07 06:46:11;;;;;;;18.23;10.30;;;;;;;9.38;89.26;101297.25;5032860;28;20041;-62
2021/11/07 06:48:37;;;;;;;26.77;11.43;;;;;;;9.48;89.69;101288.50;5033632;28;20143;-62
2021/11/07 06:51:04;;;;;;;17.38;10.38;;;;;;;9.53;88.99;101294.22;5034275;28;20053;-62
2021/11/07 06:53:31;;;;;;;18.45;10.98;;;;;;;9.48;90.01;101302.59;5023110;28;20120;-62
2021/11/07 06:55:58;;;;;;;19.17;10.82;;;;;;;9.46;89.51;101304.53;5029449;28;20144;-62
2021/11/07 06:58:25;;;;;;;20.60;11.68;;;;;;;9.54;89.33;101306.53;5034330;28;20041;-62
2021/11/07 07:00:52;;;;;;;20.02;11.00;;;;;;;9.54;89.35;101307.34;5034002;28;20049;-62
2021/11/07 07:03:18;;;;;;;17.08;10.82;;;;;;;9.64;88.35;101311.84;5032362;28;20056;-64
2021/11/07 07:05:45;;;;;;;19.58;11.23;;;;;;;9.70;88.17;101309.50;5032722;28;20111;-62
2021/11/07 07:08:18;;;;;;;22.00;10.88;;;;;;;9.61;88.30;101313.78;5032984;28;20042;-62
2021/11/07 07:10:54;;;;;;;16.95;10.98;;;;;;;9.74;87.64;101310.91;5032631;28;20430;-62
2021/11/07 07:13:27;;;;;;;19.58;10.50;;;;;;;9.69;88.17;101301.69;5033622;28;20048;-62
2021/11/07 07:16:12;;;;;;;20.00;10.38;;;;;;;9.75;87.77;101304.66;5034183;28;20049;-62
2021/11/07 07:18:52;;;;;;;17.10;9.73;;;;;;;9.86;87.27;101306.34;5033738;28;20041;-62
2021/11/07 07:32:49;;;;;;;16.88;9.65;;;;;;;9.79;87.29;101313.16;5089543;28;20115;-61
2021/11/07 07:35:04;;;;;;;18.40;9.35;;;;;;;9.73;87.43;101318.97;5087997;28;20049;-61
2021/11/07 07:37:30;;;;;;;16.95;9.10;;;;;;;9.78;87.66;101317.59;5088573;28;20047;-63
2021/11/07 07:39:58;;;;;;;15.00;9.00;;;;;;;9.78;87.27;101319.41;5089593;28;20041;-60
2021/11/07 07:42:25;;;;;;;15.85;8.52;;;;;;;9.93;86.72;101317.22;5089841;28;20041;-61
2021/11/07 07:44:53;;;;;;;15.52;8.90;;;;;;;9.99;86.51;101319.34;5089122;28;20044;-62
2021/11/07 07:47:20;;;;;;;15.18;8.70;;;;;;;9.88;87.16;101316.81;5089560;28;20046;-60
2021/11/07 07:49:49;;;;;;;17.48;8.73;;;;;;;9.92;87.21;101321.69;5089482;28;20046;-61
2021/11/07 07:52:20;;;;;;;17.70;8.52;;;;;;;9.86;86.78;101319.59;5077946;28;20040;-61
2021/11/07 07:54:48;;;;;;;15.95;8.60;;;;;;;9.91;86.53;101309.41;5080756;28;20124;-61
2021/11/07 07:57:14;;;;;;;16.00;8.88;;;;;;;9.73;87.28;101317.19;5084094;28;20033;-61
2021/11/07 07:59:41;;;;;;;17.60;8.98;;;;;;;9.90;86.65;101317.53;5076282;28;20254;-62
2021/11/07 08:02:08;;;;;;;15.50;8.98;;;;;;;10.02;86.23;101310.28;5089348;28;20040;-61
2021/11/07 08:04:35;;;;;;;20.27;9.10;;;;;;;10.05;85.95;101317.97;5080039;28;20049;-61
2021/11/07 08:07:02;;;;;;;15.57;8.13;;;;;;;9.82;86.57;101312.88;5079789;28;20067;-61
2021/11/07 08:09:29;;;;;;;14.43;7.97;;;;;;;9.86;86.45;101313.44;5089111;28;20040;-61
2021/11/07 08:11:57;;;;;;;13.88;7.50;;;;;;;9.99;85.82;101327.31;5087184;28;20048;-61
2021/11/07 08:14:23;;;;;;;14.25;7.53;;;;;;;9.99;85.65;101324.66;5072550;28;20420;-62
2021/11/07 08:16:52;;;;;;;14.98;8.25;;;;;;;10.01;85.58;101328.00;5087718;28;20094;-62
2021/11/07 08:19:19;;;;;;;16.33;7.60;;;;;;;10.11;85.27;101320.88;5088534;28;20040;-61
2021/11/07 08:21:46;;;;;;;16.35;7.78;;;;;;;10.06;85.50;101319.63;5088117;28;20032;-64
2021/11/07 08:24:14;;;;;;;20.38;8.00;;;;;;;10.09;85.24;101319.38;5081510;28;20496;-61
2021/11/07 08:26:42;;;;;;;26.73;7.68;;;;;;;10.10;85.20;101323.69;5088277;28;20496;-62
2021/11/07 08:29:13;;;;;;;14.43;7.15;;;;;;;10.02;85.51;101321.72;5088317;28;20079;-61
2021/11/07 08:31:42;;;;;;;16.83;8.40;;;;;;;9.97;85.66;101314.19;5086790;28;20417;-61
2021/11/07 08:34:09;;;;;;;20.40;7.93;;;;;;;10.12;85.22;101319.94;5087004;28;20056;-61
2021/11/07 08:36:39;;;;;;;18.10;7.50;;;;;;;10.30;84.65;101329.88;5088996;28;20040;-61
2021/11/07 08:39:17;;;;;;;17.05;7.07;;;;;;;10.25;84.06;101330.28;5083408;28;20075;-61
2021/11/07 08:41:56;;;;;;;19.63;6.43;;;;;;;10.31;83.27;101328.91;5075017;28;20097;-62
2021/11/07 09:01:23;;;;;;;20.98;6.40;;;;;;;10.66;80.65;101349.59;5054827;28;20430;-62
2021/11/07 09:03:57;;;;;;;22.27;6.07;;;;;;;10.75;80.12;101348.78;5056466;28;20505;-62
2021/11/07 09:06:37;;;;;;;19.15;5.72;;;;;;;10.70;79.07;101351.00;5052947;28;20124;-62
2021/11/07 09:09:11;;;;;;;24.75;6.43;;;;;;;10.76;78.37;101344.28;5064097;28;20064;-61
2021/11/07 09:11:48;;;;;;;24.15;5.68;;;;;;;10.85;78.18;101339.97;5073819;28;20112;-61
2021/11/07 09:14:18;;;;;;;20.92;5.55;;;;;;;10.97;77.95;101345.94;5072577;28;20071;-61
2021/11/07 09:16:47;;;;;;;23.48;5.43;;;;;;;10.90;77.55;101341.22;5058402;28;20045;-62
2021/11/07 09:19:18;;;;;;;25.60;5.57;;;;;;;10.76;77.08;101337.16;5072869;28;20090;-61
2021/11/07 09:21:50;;;;;;;21.17;5.55;;;;;;;10.83;76.24;101333.97;5074160;28;20037;-62
2021/11/07 09:24:39;;;;;;;25.85;5.75;;;;;;;10.81;76.46;101333.25;5074131;28;20052;-62
2021/11/07 09:27:32;;;;;;;28.20;5.30;;;;;;;11.00;74.92;101348.31;5072080;28;20312;-62
2021/11/07 09:32:46;;;;;;;25.50;5.70;;;;;;;11.18;74.76;101341.28;5073550;28;20501;-62
2021/11/07 09:35:22;;;;;;;21.00;4.95;;;;;;;11.17;73.53;101341.44;5071910;28;20044;-63
2021/11/07 09:37:54;;;;;;;32.55;5.50;;;;;;;11.06;74.26;101353.91;5073368;28;20063;-62
2021/11/07 09:40:24;;;;;;;22.10;4.65;;;;;;;11.19;72.76;101344.78;5073697;28;20052;-62
2021/11/07 09:43:07;;;;;;;25.92;4.72;;;;;;;11.05;74.83;101362.00;5073466;28;20059;-62
2021/11/07 09:45:47;;;;;;;25.92;4.93;;;;;;;11.10;74.78;101359.78;5057583;28;20148;-63
2021/11/07 09:48:23;;;;;;;24.20;4.72;;;;;;;11.33;73.42;101371.75;5073184;28;20476;-62
2021/11/07 09:50:52;;;;;;;26.05;4.85;;;;;;;11.28;72.42;101378.47;5071060;28;20040;-62
2021/11/07 09:53:19;;;;;;;20.73;4.75;;;;;;;11.14;73.46;101375.25;5073073;28;20041;-62
2021/11/07 09:55:47;;;;;;;24.38;4.35;;;;;;;11.13;72.30;101370.09;5073297;28;20059;-62
2021/11/07 09:58:15;;;;;;;26.05;5.90;;;;;;;11.14;73.39;101361.97;5071587;28;20400;-63
2021/11/07 10:00:46;;;;;;;21.00;4.47;;;;;;;11.08;72.43;101361.75;5073269;28;20051;-62
2021/11/07 10:03:17;;;;;;;27.20;4.55;;;;;;;10.92;74.63;101357.00;5072896;28;20397;-62
2021/11/07 10:05:47;;;;;;;22.35;4.60;;;;;;;11.10;72.13;101359.78;5057616;28;20032;-62
2021/11/07 10:08:15;;;;;;;29.25;5.30;;;;;;;11.02;73.22;101356.97;5072897;28;20385;-63
2021/11/07 10:10:49;;;;;;;23.02;5.07;;;;;;;11.14;72.42;101355.84;5072611;28;20049;-62
2021/11/07 10:13:22;;;;;;;23.55;4.10;;;;;;;11.08;72.63;101359.91;5072806;28;20037;-63
2021/11/07 10:16:03;;;;;;;25.40;4.35;;;;;;;11.06;72.61;101367.19;5072772;28;20129;-63
2021/11/07 10:18:51;;;;;;;30.00;4.80;;;;;;;11.03;72.19;101371.94;5072846;28;20455;-63
2021/11/07 10:21:25;;;;;;;23.40;4.10;;;;;;;10.92;73.16;101367.63;5072655;28;20048;-63
2021/11/07 10:24:17;;;;;;;29.98;4.18;;;;;;;11.17;71.09;101362.69;5051605;28;20048;-63
2021/11/07 10:26:49;;;;;;;23.05;4.28;;;;;;;11.16;71.27;101369.81;5061332;28;20049;-63
2021/11/07 10:32:15;;;;;;;25.10;4.18;;;;;;;11.18;69.89;101357.22;5087309;27;20381;-63
2021/11/07 10:37:41;;;;;;;28.42;4.60;;;;;;;11.13;70.60;101354.16;5089546;28;20042;-63
2021/11/07 10:43:31;;;;;;;19.83;3.50;;;;;;;11.36;68.49;101353.84;5089685;28;20584;-63
2021/11/07 10:53:51;;;;;;;27.40;3.95;;;;;;;15.09;56.51;101346.22;5110156;27;20387;-63
2021/11/07 10:56:18;;;;;;;28.40;4.03;;;;;;;15.72;52.86;101352.59;5108328;28;20047;-63
2021/11/07 10:58:46;;;;;;;31.90;4.28;;;;;;;16.22;50.94;101358.56;5099014;28;20290;-63
2021/11/07 11:01:19;;;;;;;26.88;4.68;;;;;;;17.54;47.79;101345.72;5095441;28;20036;-63
2021/11/07 11:03:49;;;;;;;26.80;4.22;;;;;;;17.24;47.46;101342.19;5101452;28;20044;-63
2021/11/07 11:06:16;;;;;;;21.98;4.18;;;;;;;16.88;48.11;101349.06;5093637;28;20374;-63
2021/11/07 11:08:53;;;;;;;21.63;4.10;;;;;;;16.95;48.30;101342.97;5108195;28;20036;-63
2021/11/07 11:14:11;;;;;;;25.67;4.28;;;;;;;14.61;52.96;101339.88;5089277;27;20389;-63
2021/11/07 11:17:32;;;;;;;24.27;4.15;;;;;;;13.95;56.34;101335.22;5089674;28;20051;-63
2021/11/07 11:22:18;;;;;;;23.77;4.30;;;;;;;12.38;61.17;101336.97;5110526;27;20399;-63
2021/11/07 11:31:17;;;;;;;31.35;3.95;;;;;;;11.95;61.47;101341.16;5108500;28;20052;-63
2021/11/07 11:33:32;;;;;;;36.58;4.10;;;;;;;12.76;59.79;101346.47;5108685;28;20048;-63
2021/11/07 11:36:24;;;;;;;28.88;3.78;;;;;;;12.99;57.32;101344.16;5109755;28;20071;-63
2021/11/07 11:38:53;;;;;;;24.17;3.55;;;;;;;12.67;58.59;101342.91;5109475;28;20051;-63
2021/11/07 11:44:08;;;;;;;26.33;4.22;;;;;;;12.45;59.38;101335.41;5103684;28;20043;-63
2021/11/07 11:46:48;;;;;;;33.97;4.85;;;;;;;12.29;59.59;101344.88;5097402;28;20044;-63
2021/11/07 11:52:40;;;;;;;33.50;4.13;;;;;;;11.82;60.28;101331.69;5130185;27;20135;-63
2021/11/07 11:55:00;;;;;;;29.50;4.28;;;;;;;11.82;60.52;101328.19;5129993;28;20050;-63
2021/11/07 12:03:10;;;;;;;26.25;3.30;;;;;;;12.46;58.85;101305.13;5089669;28;20773;-63
2021/11/07 12:08:31;;;;;;;27.43;3.60;;;;;;;13.63;56.80;101290.59;5052305;27;1241308;-63
2021/11/07 12:11:56;;;;;;;27.67;3.72;;;;;;;14.29;53.28;101296.09;5097407;28;20313;-62
2021/11/07 12:14:24;;;;;;;22.85;3.45;;;;;;;13.66;55.07;101294.78;5092687;28;20180;-62
2021/11/07 12:16:59;;;;;;;22.13;3.58;;;;;;;13.21;55.82;101302.88;5108711;28;20044;-63
2021/11/07 12:19:53;;;;;;;36.13;4.93;;;;;;;13.13;57.07;101297.47;5073792;28;20043;-63
2021/11/07 12:23:28;;;;;;;22.48;3.72;;;;;;;13.04;56.85;101295.75;5090379;28;20028;-63
2021/11/07 12:26:18;;;;;;;26.90;3.83;;;;;;;12.85;57.64;101286.16;5108016;28;20527;-63
2021/11/07 12:28:48;;;;;;;25.75;4.53;;;;;;;13.56;56.06;101282.41;5085096;28;20047;-63
2021/11/07 12:31:16;;;;;;;27.95;4.50;;;;;;;13.82;54.82;101292.16;5058892;28;20505;-63
2021/11/07 12:33:59;;;;;;;24.33;3.30;;;;;;;13.10;57.01;101304.94;5108143;28;20127;-63
2021/11/07 12:36:39;;;;;;;24.10;3.80;;;;;;;13.12;56.76;101306.47;5107515;28;20035;-63
2021/11/07 12:42:23;;;;;;;25.88;3.90;;;;;;;12.60;59.67;101299.25;5094149;28;20051;-65
2021/11/07 12:44:53;;;;;;;27.83;3.65;;;;;;;12.75;57.35;101294.25;5063006;28;20131;-63
2021/11/07 12:47:25;;;;;;;25.02;3.58;;;;;;;12.46;58.01;101295.34;5077107;28;20086;-63
2021/11/07 12:50:05;;;;;;;23.00;4.05;;;;;;;12.25;58.49;101302.78;5081917;28;20168;-63
2021/11/07 12:52:49;;;;;;;24.65;3.58;;;;;;;12.00;59.49;101296.38;5094316;28;20044;-63
2021/11/07 12:55:25;;;;;;;24.00;3.75;;;;;;;12.02;59.90;101299.69;5097487;28;20513;-63
2021/11/07 12:57:52;;;;;;;24.25;3.78;;;;;;;12.32;60.01;101303.03;5094902;28;20107;-63
2021/11/07 13:00:19;;;;;;;30.77;3.78;;;;;;;13.44;55.57;101291.69;5106093;28;20031;-63
2021/11/07 13:02:47;;;;;;;22.67;4.05;;;;;;;14.37;52.85;101288.09;5055085;28;20118;-63
2021/11/07 13:05:28;;;;;;;15.75;2.83;;;;;;;14.93;50.75;101269.59;5085205;28;20558;-63
2021/11/07 13:08:00;;;;;;;21.30;3.50;;;;;;;15.74;48.20;101283.72;5071991;28;20071;-63
2021/11/07 13:11:18;;;;;;;22.33;3.53;;;;;;;15.67;46.43;101285.41;5088112;28;20496;-64
2021/11/07 13:13:35;;;;;;;20.75;3.30;;;;;;;15.84;47.49;101284.31;5084487;28;20079;-64